Time,TemperatureF,DewpointF,PressureIn,WindDirection,WindDirectionDegrees,WindSpeedMPH,WindSpeedGustMPH,Humidity,HourlyPrecipIn,Conditions,Clouds,dailyrainin,SoftwareType,DateUTC
2013-09-06 00:01:00,43.3,42.2,30.14,NNW,329,0.0,0.0,96,0.00,CLR,,0.00,WeatherDisplay:10.37,2013-09-06 04:01:00,
2013-09-06 00:06:00,43.2,42.1,30.14,NNW,329,0.0,0.0,96,0.00,CLR,,0.00,WeatherDisplay:10.37,2013-09-06 04:06:00,
2013-09-06 00:11:00,43.0,41.9,30.14,NNW,329,0.0,0.0,96,0.00,CLR,,0.00,WeatherDisplay:10.37,2013-09-06 04:11:00,
2013-09-06 00:16:00,43.0,41.9,30.14,NNW,329,0.0,0.0,96,0.00,CLR,,0.00,WeatherDisplay:10.37,2013-09-06 04:16:00,
2013-09-06 00:21:00,42.9,41.8,30.14,NNW,329,0.0,0.0,96,0.00,CLR,,0.00,WeatherDisplay:10.37,2013-09-06 04:21:00,
2013-09-06 00:26:00,42.8,42.0,30.15,NNW,329,0.0,0.0,97,0.00,CLR,,0.00,WeatherDisplay:10.37,2013-09-06 04:26:00,
2013-09-06 00:31:00,42.7,41.6,30.15,NNW,329,0.0,0.0,96,0.00,CLR,,0.00,WeatherDisplay:10.37,2013-09-06 04:31:00,
2013-09-06 00:36:00,42.7,41.6,30.15,NNW,329,0.0,0.0,96,0.00,CLR,,0.00,WeatherDisplay:10.37,2013-09-06 04:36:00,
2013-09-06 00:41:00,42.6,41.5,30.15,NNW,329,0.0,0.0,96,0.00,CLR,,0.00,WeatherDisplay:10.37,2013-09-06 04:41:00,
2013-09-06 00:46:00,42.5,41.4,30.15,NNW,329,0.0,0.0,96,0.00,CLR,,0.00,WeatherDisplay:10.37,2013-09-06 04:46:00,
2013-09-06 00:51:00,42.4,41.6,30.15,NNW,329,0.0,0.0,97,0.00,CLR,,0.00,WeatherDisplay:10.37,2013-09-06 04:51:00,
2013-09-06 00:56:00,42.4,41.6,30.15,NNW,329,0.0,0.0,97,0.00,CLR,,0.00,WeatherDisplay:10.37,2013-09-06 04:56:00,
2013-09-06 01:01:00,42.3,41.5,30.15,NNW,329,0.0,0.0,97,0.00,CLR,,0.00,WeatherDisplay:10.37,2013-09-06 05:01:00,
2013-09-06 01:06:00,42.2,41.4,30.15,NNW,329,0.0,0.0,97,0.00,CLR,,0.00,WeatherDisplay:10.37,2013-09-06 05:06:00,
2013-09-06 01:11:00,42.2,41.4,30.15,NNW,329,0.0,0.0,97,0.00,CLR,,0.00,WeatherDisplay:10.37,2013-09-06 05:11:00,
2013-09-06 01:16:00,42.1,41.3,30.15,NNW,329,0.0,0.0,97,0.00,CLR,,0.00,WeatherDisplay:10.37,2013-09-06 05:16:00,
2013-09-06 01:21:00,41.9,41.1,30.15,NNW,329,0.0,0.0,97,0.00,CLR,,0.00,WeatherDisplay:10.37,2013-09-06 05:21:00,
2013-09-06 01:26:00,41.9,41.1,30.15,NNW,329,0.0,0.0,97,0.00,CLR,,0.00,WeatherDisplay:10.37,2013-09-06 05:26:00,
2013-09-06 01:31:00,41.7,40.9,30.15,NNW,329,0.0,0.0,97,0.00,CLR,,0.00,WeatherDisplay:10.37,2013-09-06 05:31:00,
2013-09-06 01:36:00,41.6,40.8,30.15,NNW,329,0.0,0.0,97,0.00,CLR,,0.00,WeatherDisplay:10.37,2013-09-06 05:36:00,
2013-09-06 01:41:00,41.4,40.6,30.15,NNW,329,0.0,0.0,97,0.00,CLR,,0.00,WeatherDisplay:10.37,2013-09-06 05:41:00,
2013-09-06 01:47:00,41.3,40.5,30.15,NNW,329,0.0,0.0,97,0.00,CLR,,0.00,WeatherDisplay:10.37,2013-09-06 05:47:00,
2013-09-06 01:52:00,41.1,40.3,30.16,NNW,329,0.0,0.0,97,0.00,CLR,,0.00,WeatherDisplay:10.37,2013-09-06 05:52:00,
2013-09-06 01:57:00,41.0,40.2,30.16,NNW,329,0.0,0.0,97,0.00,CLR,,0.00,WeatherDisplay:10.37,2013-09-06 05:57:00,
2013-09-06 02:02:00,41.0,40.2,30.16,NNW,329,0.0,0.0,97,0.00,CLR,,0.00,WeatherDisplay:10.37,2013-09-06 06:02:00,
2013-09-06 02:07:00,40.7,40.0,30.16,NNW,329,0.0,0.0,97,0.00,,,0.00,weatherlink.com 1.10,2013-09-06 06:07:00,
2013-09-06 02:12:00,40.5,39.7,30.16,NNW,329,0.0,0.0,97,0.00,CLR,,0.00,WeatherDisplay:10.37,2013-09-06 06:12:00,
2013-09-06 02:17:00,40.4,39.4,30.16,NNW,329,0.0,0.0,96,0.00,CLR,,0.00,WeatherDisplay:10.37,2013-09-06 06:17:00,
2013-09-06 02:22:00,40.4,39.4,30.16,NNW,329,0.0,0.0,96,0.00,CLR,,0.00,WeatherDisplay:10.37,2013-09-06 06:22:00,
2013-09-06 02:27:00,40.2,39.4,30.16,NNW,329,0.0,0.0,97,0.00,CLR,,0.00,WeatherDisplay:10.37,2013-09-06 06:27:00,
2013-09-06 02:32:00,40.2,39.4,30.16,NNW,329,0.0,0.0,97,0.00,CLR,,0.00,WeatherDisplay:10.37,2013-09-06 06:32:00,
2013-09-06 02:37:00,40.1,39.3,30.16,NNW,329,0.0,0.0,97,0.00,CLR,,0.00,WeatherDisplay:10.37,2013-09-06 06:37:00,
2013-09-06 02:42:00,40.0,39.2,30.16,NNW,329,0.0,0.0,97,0.00,CLR,,0.00,WeatherDisplay:10.37,2013-09-06 06:42:00,
2013-09-06 02:47:00,39.9,39.1,30.16,NNW,329,0.0,0.0,97,0.00,CLR,,0.00,WeatherDisplay:10.37,2013-09-06 06:47:00,
2013-09-06 02:52:00,39.8,39.0,30.16,NNW,329,0.0,0.0,97,0.00,,,0.00,weatherlink.com 1.10,2013-09-06 06:52:00,
2013-09-06 02:57:00,39.7,38.9,30.16,NNW,329,0.0,0.0,97,0.00,CLR,,0.00,WeatherDisplay:10.37,2013-09-06 06:57:00,
2013-09-06 03:02:00,39.7,38.9,30.16,NNW,329,0.0,0.0,97,0.00,SCT,,0.00,WeatherDisplay:10.37,2013-09-06 07:02:00,
2013-09-06 03:07:00,39.5,38.7,30.16,NNW,329,0.0,0.0,97,0.00,SCT,,0.00,WeatherDisplay:10.37,2013-09-06 07:07:00,
2013-09-06 03:12:00,39.4,38.6,30.17,NNW,329,0.0,0.0,97,0.00,SCT,,0.00,WeatherDisplay:10.37,2013-09-06 07:12:00,
2013-09-06 03:17:00,39.3,38.5,30.17,NNW,329,0.0,0.0,97,0.00,SCT,,0.00,WeatherDisplay:10.37,2013-09-06 07:17:00,
2013-09-06 03:22:00,39.1,38.3,30.17,NNW,329,0.0,0.0,97,0.00,SCT,,0.00,WeatherDisplay:10.37,2013-09-06 07:22:00,
2013-09-06 03:27:00,39.0,38.2,30.17,NNW,329,0.0,0.0,97,0.00,SCT,,0.00,WeatherDisplay:10.37,2013-09-06 07:27:00,
2013-09-06 03:32:00,38.9,38.1,30.17,NNW,329,0.0,0.0,97,0.00,SCT,,0.00,WeatherDisplay:10.37,2013-09-06 07:32:00,
2013-09-06 03:37:00,38.7,37.9,30.18,NNW,329,0.0,0.0,97,0.00,SCT,,0.00,WeatherDisplay:10.37,2013-09-06 07:37:00,
2013-09-06 03:42:00,38.6,37.8,30.17,NNW,329,0.0,0.0,97,0.00,SCT,,0.00,WeatherDisplay:10.37,2013-09-06 07:42:00,
2013-09-06 03:47:00,38.6,37.8,30.17,NNW,329,0.0,0.0,97,0.00,SCT,,0.00,WeatherDisplay:10.37,2013-09-06 07:47:00,
2013-09-06 03:52:00,38.4,37.6,30.17,NNW,329,0.0,0.0,97,0.00,SCT,,0.00,WeatherDisplay:10.37,2013-09-06 07:52:00,
2013-09-06 03:57:00,38.4,37.6,30.17,NNW,329,0.0,0.0,97,0.00,SCT,,0.00,WeatherDisplay:10.37,2013-09-06 07:57:00,
2013-09-06 04:02:00,38.4,37.6,30.18,NNW,329,0.0,0.0,97,0.00,SCT,,0.00,WeatherDisplay:10.37,2013-09-06 08:02:00,
2013-09-06 04:07:00,38.3,37.5,30.18,NNW,329,0.0,0.0,97,0.00,SCT,,0.00,WeatherDisplay:10.37,2013-09-06 08:07:00,
2013-09-06 04:12:00,38.2,37.4,30.18,NNW,329,0.0,0.0,97,0.00,FEW,,0.00,WeatherDisplay:10.37,2013-09-06 08:12:00,
2013-09-06 04:17:00,38.1,37.3,30.18,NNW,329,0.0,0.0,97,0.00,FEW,,0.00,WeatherDisplay:10.37,2013-09-06 08:17:00,
2013-09-06 04:22:00,37.9,37.1,30.18,NNW,329,0.0,0.0,97,0.00,FEW,,0.00,WeatherDisplay:10.37,2013-09-06 08:22:00,
2013-09-06 04:27:00,37.8,37.0,30.18,NNW,329,0.0,0.0,97,0.00,FEW,,0.00,WeatherDisplay:10.37,2013-09-06 08:27:00,
2013-09-06 04:32:00,37.7,36.9,30.19,NNW,329,0.0,0.0,97,0.00,FEW,,0.00,WeatherDisplay:10.37,2013-09-06 08:32:00,
2013-09-06 04:37:00,37.7,36.9,30.19,NNW,329,0.0,0.0,97,0.00,FEW,,0.00,WeatherDisplay:10.37,2013-09-06 08:37:00,
2013-09-06 04:42:00,37.6,36.8,30.19,NNW,329,0.0,0.0,97,0.00,FEW,,0.00,WeatherDisplay:10.37,2013-09-06 08:42:00,
2013-09-06 04:47:00,37.5,36.7,30.19,NNW,329,0.0,0.0,97,0.00,FEW,,0.00,WeatherDisplay:10.37,2013-09-06 08:47:00,
2013-09-06 04:52:00,37.5,37.0,30.19,NNW,329,0.0,0.0,98,0.00,FEW,,0.00,WeatherDisplay:10.37,2013-09-06 08:52:00,
2013-09-06 04:57:00,37.5,37.0,30.19,NNW,329,0.0,0.0,98,0.00,FEW,,0.00,WeatherDisplay:10.37,2013-09-06 08:57:00,
2013-09-06 05:02:00,37.4,36.9,30.19,NNW,329,0.0,0.0,98,0.00,FEW,,0.00,WeatherDisplay:10.37,2013-09-06 09:02:00,
2013-09-06 05:07:00,37.4,36.6,30.19,NNW,329,0.0,0.0,97,0.00,FEW,,0.00,WeatherDisplay:10.37,2013-09-06 09:07:00,
2013-09-06 05:12:00,37.3,36.8,30.19,NNW,329,0.0,0.0,98,0.00,CLR,,0.00,WeatherDisplay:10.37,2013-09-06 09:12:00,
2013-09-06 05:17:00,37.3,36.8,30.19,NNW,329,0.0,0.0,98,0.00,CLR,,0.00,WeatherDisplay:10.37,2013-09-06 09:17:00,
2013-09-06 05:22:00,37.3,36.8,30.19,NNW,329,0.0,0.0,98,0.00,CLR,,0.00,WeatherDisplay:10.37,2013-09-06 09:22:00,
2013-09-06 05:27:00,37.2,36.7,30.19,NNW,329,0.0,0.0,98,0.00,CLR,,0.00,WeatherDisplay:10.37,2013-09-06 09:27:00,
2013-09-06 05:32:00,37.1,36.6,30.19,NNW,329,0.0,0.0,98,0.00,CLR,,0.00,WeatherDisplay:10.37,2013-09-06 09:32:00,
2013-09-06 05:37:00,37.0,36.5,30.19,NNW,329,0.0,0.0,98,0.00,CLR,,0.00,WeatherDisplay:10.37,2013-09-06 09:37:00,
2013-09-06 05:42:00,37.0,36.5,30.19,NNW,329,0.0,0.0,98,0.00,CLR,,0.00,WeatherDisplay:10.37,2013-09-06 09:42:00,
2013-09-06 05:47:00,36.9,36.4,30.19,NNW,329,0.0,0.0,98,0.00,CLR,,0.00,WeatherDisplay:10.37,2013-09-06 09:47:00,
2013-09-06 05:52:00,36.8,36.0,30.19,NNW,329,0.0,0.0,97,0.00,FEW,,0.00,WeatherDisplay:10.37,2013-09-06 09:52:00,
2013-09-06 05:57:00,36.7,35.9,30.20,NNW,329,0.0,0.0,97,0.00,FEW,,0.00,WeatherDisplay:10.37,2013-09-06 09:57:00,
2013-09-06 06:02:00,36.5,35.7,30.21,NNW,329,0.0,0.0,97,0.00,FEW,,0.00,WeatherDisplay:10.37,2013-09-06 10:02:00,
2013-09-06 06:07:00,36.4,35.6,30.21,NNW,329,0.0,0.0,97,0.00,FEW,,0.00,WeatherDisplay:10.37,2013-09-06 10:07:00,
2013-09-06 06:12:00,36.2,35.4,30.21,NNW,329,0.0,0.0,97,0.00,FEW,,0.00,WeatherDisplay:10.37,2013-09-06 10:12:00,
2013-09-06 06:17:00,36.2,35.4,30.21,NNW,329,0.0,0.0,97,0.00,FEW,,0.00,WeatherDisplay:10.37,2013-09-06 10:17:00,
2013-09-06 06:22:00,36.1,35.3,30.21,NNW,329,0.0,0.0,97,0.00,FEW,,0.00,WeatherDisplay:10.37,2013-09-06 10:22:00,
2013-09-06 06:27:00,36.1,35.6,30.22,NNW,329,0.0,0.0,98,0.00,FEW,,0.00,WeatherDisplay:10.37,2013-09-06 10:27:00,
2013-09-06 06:32:00,36.1,35.6,30.22,NNW,329,0.0,0.0,98,0.00,FEW,,0.00,WeatherDisplay:10.37,2013-09-06 10:32:00,
2013-09-06 06:37:00,36.1,35.6,30.22,NNW,329,0.0,0.0,98,0.00,FEW,,0.00,WeatherDisplay:10.37,2013-09-06 10:37:00,
2013-09-06 06:42:00,36.1,35.6,30.22,NNW,329,0.0,0.0,98,0.00,FEW,,0.00,WeatherDisplay:10.37,2013-09-06 10:42:00,
2013-09-06 06:47:00,36.1,35.6,30.22,NNW,329,0.0,0.0,98,0.00,FEW,,0.00,WeatherDisplay:10.37,2013-09-06 10:47:00,
2013-09-06 06:52:00,36.3,35.8,30.22,NNW,329,0.0,0.0,98,0.00,FEW,,0.00,WeatherDisplay:10.37,2013-09-06 10:52:00,
2013-09-06 06:57:00,36.4,35.9,30.22,NNW,329,0.0,0.0,98,0.00,FEW,,0.00,WeatherDisplay:10.37,2013-09-06 10:57:00,
2013-09-06 07:02:00,36.4,35.9,30.21,NNW,329,0.0,0.0,98,0.00,,,0.00,WeatherDisplay:10.37,2013-09-06 11:02:00,
2013-09-06 07:07:00,36.5,36.0,30.21,NNW,329,0.0,0.0,98,0.00,,,0.00,WeatherDisplay:10.37,2013-09-06 11:07:00,
2013-09-06 07:12:00,36.7,36.2,30.21,NNW,329,0.0,0.0,98,0.00,,,0.00,WeatherDisplay:10.37,2013-09-06 11:12:00,
2013-09-06 07:17:00,36.8,36.3,30.21,NNW,329,0.0,0.0,98,0.00,,,0.00,WeatherDisplay:10.37,2013-09-06 11:17:00,
2013-09-06 07:22:00,37.1,36.8,30.21,NNW,329,0.0,0.0,99,0.00,,,0.00,WeatherDisplay:10.37,2013-09-06 11:22:00,
2013-09-06 07:27:00,37.3,36.8,30.22,NNW,329,0.0,0.0,98,0.00,,,0.00,WeatherDisplay:10.37,2013-09-06 11:27:00,
2013-09-06 07:32:00,37.5,37.2,30.22,NNW,329,0.0,0.0,99,0.00,,,0.00,WeatherDisplay:10.37,2013-09-06 11:32:00,
2013-09-06 07:37:00,37.7,37.4,30.22,NNW,329,0.0,0.0,99,0.00,,,0.00,WeatherDisplay:10.37,2013-09-06 11:37:00,
2013-09-06 07:42:00,37.9,37.6,30.22,NNW,329,0.0,0.0,99,0.00,CLR,,0.00,WeatherDisplay:10.37,2013-09-06 11:42:00,
2013-09-06 07:47:00,38.3,38.0,30.21,NNW,329,0.0,0.0,99,0.00,CLR,,0.00,WeatherDisplay:10.37,2013-09-06 11:47:00,
2013-09-06 07:52:00,38.8,38.5,30.21,NNW,329,0.0,0.0,99,0.00,CLR,,0.00,WeatherDisplay:10.37,2013-09-06 11:52:00,
2013-09-06 07:57:00,39.3,39.0,30.21,NNW,329,0.0,0.0,99,0.00,CLR,,0.00,WeatherDisplay:10.37,2013-09-06 11:57:00,
2013-09-06 08:03:00,39.6,39.3,30.21,NNW,329,0.0,0.0,99,0.00,CLR,,0.00,WeatherDisplay:10.37,2013-09-06 12:03:00,
2013-09-06 08:07:00,40.1,39.8,30.21,NNW,329,0.0,0.0,99,0.00,CLR,,0.00,WeatherDisplay:10.37,2013-09-06 12:07:00,
2013-09-06 08:13:00,40.6,40.3,30.21,NNW,329,0.0,0.0,99,0.00,CLR,,0.00,WeatherDisplay:10.37,2013-09-06 12:13:00,
2013-09-06 08:18:00,41.0,40.7,30.22,NNW,329,0.0,0.0,99,0.00,CLR,,0.00,WeatherDisplay:10.37,2013-09-06 12:18:00,
2013-09-06 08:23:00,41.6,41.3,30.21,NNW,329,0.0,0.0,99,0.00,CLR,,0.00,WeatherDisplay:10.37,2013-09-06 12:23:00,
2013-09-06 08:28:00,42.3,42.0,30.22,NNW,329,0.0,0.0,99,0.00,CLR,,0.00,WeatherDisplay:10.37,2013-09-06 12:28:00,
2013-09-06 08:33:00,43.3,43.0,30.22,NNW,329,0.0,0.0,99,0.00,CLR,,0.00,WeatherDisplay:10.37,2013-09-06 12:33:00,
2013-09-06 08:38:00,44.4,44.4,30.22,NNW,329,0.0,0.0,100,0.00,CLR,,0.00,WeatherDisplay:10.37,2013-09-06 12:38:00,
2013-09-06 08:43:00,45.6,45.3,30.23,NNW,329,0.0,0.0,99,0.00,CLR,,0.00,WeatherDisplay:10.37,2013-09-06 12:43:00,
2013-09-06 08:48:00,46.3,46.0,30.23,NNW,329,0.0,0.0,99,0.00,CLR,,0.00,WeatherDisplay:10.37,2013-09-06 12:48:00,
2013-09-06 08:53:00,47.1,47.1,30.23,NNW,329,0.0,0.0,100,0.00,CLR,,0.00,WeatherDisplay:10.37,2013-09-06 12:53:00,
2013-09-06 08:58:00,47.9,47.9,30.23,NNW,329,0.0,0.0,100,0.00,CLR,,0.00,WeatherDisplay:10.37,2013-09-06 12:58:00,
2013-09-06 09:03:00,48.1,48.1,30.23,NNW,329,0.0,0.0,100,0.00,CLR,,0.00,WeatherDisplay:10.37,2013-09-06 13:03:00,
2013-09-06 09:08:00,48.7,48.4,30.23,NNW,329,0.0,0.0,99,0.00,CLR,,0.00,WeatherDisplay:10.37,2013-09-06 13:08:00,
2013-09-06 09:13:00,49.0,49.0,30.23,NNW,329,0.0,0.0,100,0.00,CLR,,0.00,WeatherDisplay:10.37,2013-09-06 13:13:00,
2013-09-06 09:18:00,49.8,49.3,30.23,NNW,329,0.0,0.0,98,0.00,CLR,,0.00,WeatherDisplay:10.37,2013-09-06 13:18:00,
2013-09-06 09:23:00,50.3,46.9,30.23,NNW,329,1.2,1.2,88,0.00,CLR,,0.00,WeatherDisplay:10.37,2013-09-06 13:23:00,
2013-09-06 09:28:00,50.7,47.0,30.23,NW,324,0.0,0.0,87,0.00,CLR,,0.00,WeatherDisplay:10.37,2013-09-06 13:28:00,
2013-09-06 09:33:00,51.2,46.5,30.23,NW,324,0.0,0.0,84,0.00,CLR,,0.00,WeatherDisplay:10.37,2013-09-06 13:33:00,
2013-09-06 09:38:00,51.9,45.9,30.23,NNW,344,1.2,1.2,80,0.00,CLR,,0.00,WeatherDisplay:10.37,2013-09-06 13:38:00,
2013-09-06 09:43:00,52.5,43.0,30.23,WSW,252,1.2,1.2,70,0.00,CLR,,0.00,WeatherDisplay:10.37,2013-09-06 13:43:00,
2013-09-06 09:48:00,53.1,46.1,30.23,WSW,252,0.0,0.0,77,0.00,CLR,,0.00,WeatherDisplay:10.37,2013-09-06 13:48:00,
2013-09-06 09:53:00,53.5,43.2,30.23,SSW,197,2.3,0.0,68,0.00,CLR,,0.00,WeatherDisplay:10.37,2013-09-06 13:53:00,
2013-09-06 09:58:00,54.2,42.3,30.23,NW,326,2.3,2.3,64,0.00,CLR,,0.00,WeatherDisplay:10.37,2013-09-06 13:58:00,
2013-09-06 10:03:00,54.8,41.6,30.24,North,355,3.5,3.5,61,0.00,CLR,,0.00,WeatherDisplay:10.37,2013-09-06 14:03:00,
2013-09-06 10:08:00,55.3,42.1,30.23,SW,232,2.3,2.3,61,0.00,CLR,,0.00,WeatherDisplay:10.37,2013-09-06 14:08:00,
2013-09-06 10:13:00,55.7,42.5,30.23,NNW,337,0.0,0.0,61,0.00,CLR,,0.00,WeatherDisplay:10.37,2013-09-06 14:13:00,
2013-09-06 10:18:00,56.0,41.4,30.23,WSW,240,3.5,3.5,58,0.00,CLR,,0.00,WeatherDisplay:10.37,2013-09-06 14:18:00,
2013-09-06 10:23:00,56.2,43.3,30.23,NNE,19,2.3,2.3,62,0.00,CLR,,0.00,WeatherDisplay:10.37,2013-09-06 14:23:00,
2013-09-06 10:28:00,56.6,41.5,30.23,West,265,0.0,0.1,57,0.00,CLR,,0.00,WeatherDisplay:10.37,2013-09-06 14:28:00,
2013-09-06 10:33:00,56.7,42.1,30.23,West,267,3.5,3.5,58,0.00,CLR,,0.00,WeatherDisplay:10.37,2013-09-06 14:33:00,
2013-09-06 10:38:00,57.2,43.0,30.22,NW,309,2.3,2.3,59,0.00,CLR,,0.00,WeatherDisplay:10.37,2013-09-06 14:38:00,
2013-09-06 10:43:00,57.5,41.9,30.23,NNW,342,3.5,3.5,56,0.00,CLR,,0.00,WeatherDisplay:10.37,2013-09-06 14:43:00,
2013-09-06 10:48:00,57.6,42.9,30.23,NW,311,0.0,0.0,58,0.00,CLR,,0.00,WeatherDisplay:10.37,2013-09-06 14:48:00,
2013-09-06 10:53:00,57.7,42.6,30.22,North,349,1.2,1.2,57,0.00,CLR,,0.00,WeatherDisplay:10.37,2013-09-06 14:53:00,
2013-09-06 10:58:00,57.8,41.7,30.22,West,279,0.0,0.2,55,0.00,CLR,,0.00,WeatherDisplay:10.37,2013-09-06 14:58:00,
2013-09-06 11:03:00,57.8,40.8,30.22,SW,223,3.5,3.5,53,0.00,CLR,,0.00,WeatherDisplay:10.37,2013-09-06 15:03:00,
2013-09-06 11:08:00,57.9,41.3,30.22,SW,222,1.2,1.2,54,0.00,CLR,,0.00,WeatherDisplay:10.37,2013-09-06 15:08:00,
2013-09-06 11:13:00,58.2,43.9,30.22,North,350,0.0,0.0,59,0.00,CLR,,0.00,WeatherDisplay:10.37,2013-09-06 15:13:00,
2013-09-06 11:18:00,58.3,40.2,30.22,NNE,24,1.2,1.2,51,0.00,CLR,,0.00,WeatherDisplay:10.37,2013-09-06 15:18:00,
2013-09-06 11:23:00,58.4,42.3,30.22,NNE,24,1.2,1.2,55,0.00,CLR,,0.00,WeatherDisplay:10.37,2013-09-06 15:23:00,
2013-09-06 11:28:00,58.5,41.9,30.22,SSW,210,2.3,2.3,54,0.00,CLR,,0.00,WeatherDisplay:10.37,2013-09-06 15:28:00,
2013-09-06 11:33:00,58.9,40.3,30.22,NNW,329,3.5,3.5,50,0.00,CLR,,0.00,WeatherDisplay:10.37,2013-09-06 15:33:00,
2013-09-06 11:38:00,59.3,43.6,30.22,SSW,208,2.3,2.3,56,0.00,CLR,,0.00,WeatherDisplay:10.37,2013-09-06 15:38:00,
2013-09-06 11:43:00,59.6,40.9,30.22,SSE,159,3.5,3.5,50,0.00,CLR,,0.00,WeatherDisplay:10.37,2013-09-06 15:43:00,
2013-09-06 11:48:00,60.0,42.8,30.22,NNW,348,0.0,0.0,53,0.00,CLR,,0.00,WeatherDisplay:10.37,2013-09-06 15:48:00,
2013-09-06 11:53:00,60.4,45.1,30.21,NNW,348,0.0,0.1,57,0.00,CLR,,0.00,WeatherDisplay:10.37,2013-09-06 15:53:00,
2013-09-06 11:58:00,60.8,42.5,30.21,SW,222,4.6,4.6,51,0.00,CLR,,0.00,WeatherDisplay:10.37,2013-09-06 15:58:00,
2013-09-06 12:03:00,61.0,42.7,30.21,WSW,238,1.2,1.2,51,0.00,CLR,,0.00,WeatherDisplay:10.37,2013-09-06 16:03:00,
2013-09-06 12:08:00,61.1,42.8,30.21,East,79,2.3,2.3,51,0.00,CLR,,0.00,WeatherDisplay:10.37,2013-09-06 16:08:00,
2013-09-06 12:13:00,61.2,42.9,30.20,South,188,2.3,2.3,51,0.00,CLR,,0.00,WeatherDisplay:10.37,2013-09-06 16:13:00,
2013-09-06 12:18:00,61.4,41.5,30.20,NE,47,3.0,3.0,48,0.00,CLR,,0.00,WeatherDisplay:10.37,2013-09-06 16:18:00,
2013-09-06 12:23:00,61.5,41.6,30.20,SW,215,3.5,3.5,48,0.00,CLR,,0.00,WeatherDisplay:10.37,2013-09-06 16:23:00,
2013-09-06 12:28:00,61.8,41.9,30.20,WNW,282,2.3,2.3,48,0.00,CLR,,0.00,WeatherDisplay:10.37,2013-09-06 16:28:00,
2013-09-06 12:33:00,61.7,40.1,30.20,South,188,0.0,0.0,45,0.00,CLR,,0.00,WeatherDisplay:10.37,2013-09-06 16:33:00,
2013-09-06 12:38:00,61.8,40.2,30.20,NE,34,0.0,0.0,45,0.00,CLR,,0.00,WeatherDisplay:10.37,2013-09-06 16:38:00,
2013-09-06 12:43:00,62.1,41.1,30.20,NNE,20,4.0,4.0,46,0.00,CLR,,0.00,WeatherDisplay:10.37,2013-09-06 16:43:00,
2013-09-06 12:48:00,62.1,41.1,30.20,WNW,285,3.5,3.5,46,0.00,CLR,,0.00,WeatherDisplay:10.37,2013-09-06 16:48:00,
2013-09-06 12:53:00,62.2,40.6,30.20,North,355,3.5,3.5,45,0.00,CLR,,0.00,WeatherDisplay:10.37,2013-09-06 16:53:00,
2013-09-06 12:58:00,62.4,40.2,30.20,SSW,213,2.3,2.3,44,0.00,CLR,,0.00,WeatherDisplay:10.37,2013-09-06 16:58:00,
2013-09-06 13:03:00,62.4,40.8,30.20,NNE,15,3.5,3.5,45,0.00,CLR,,0.00,WeatherDisplay:10.37,2013-09-06 17:03:00,
2013-09-06 13:08:00,62.5,43.6,30.20,NNW,331,1.2,1.2,50,0.00,CLR,,0.00,WeatherDisplay:10.37,2013-09-06 17:08:00,
2013-09-06 13:13:00,62.6,40.9,30.19,WSW,242,3.5,3.5,45,0.00,CLR,,0.00,WeatherDisplay:10.37,2013-09-06 17:13:00,
2013-09-06 13:18:00,62.7,41.0,30.19,NW,311,2.3,2.3,45,0.00,CLR,,0.00,WeatherDisplay:10.37,2013-09-06 17:18:00,
2013-09-06 13:23:00,62.9,42.9,30.19,WSW,251,1.2,0.0,48,0.00,CLR,,0.00,WeatherDisplay:10.37,2013-09-06 17:23:00,
2013-09-06 13:28:00,63.8,42.0,30.19,South,176,3.5,3.5,45,0.00,CLR,,0.00,WeatherDisplay:10.37,2013-09-06 17:28:00,
2013-09-06 13:33:00,63.9,41.0,30.19,SSE,163,3.5,3.5,43,0.00,CLR,,0.00,WeatherDisplay:10.37,2013-09-06 17:33:00,
2013-09-06 13:38:00,63.6,40.7,30.19,NNE,28,2.3,2.3,43,0.00,CLR,,0.00,WeatherDisplay:10.37,2013-09-06 17:38:00,
2013-09-06 13:43:00,63.5,44.0,30.19,East,82,1.2,1.2,49,0.00,CLR,,0.00,WeatherDisplay:10.37,2013-09-06 17:43:00,
2013-09-06 13:48:00,63.3,41.6,30.18,SSW,210,2.3,2.3,45,0.00,CLR,,0.00,WeatherDisplay:10.37,2013-09-06 17:48:00,
2013-09-06 13:53:00,63.3,41.0,30.18,NNW,343,4.0,4.0,44,0.00,CLR,,0.00,WeatherDisplay:10.37,2013-09-06 17:53:00,
2013-09-06 13:58:00,63.3,42.2,30.18,NNE,30,1.2,1.2,46,0.00,CLR,,0.00,WeatherDisplay:10.37,2013-09-06 17:58:00,
2013-09-06 14:03:00,63.5,41.8,30.18,SW,219,3.5,3.5,45,0.00,CLR,,0.00,WeatherDisplay:10.37,2013-09-06 18:03:00,
2013-09-06 14:08:00,63.8,41.5,30.17,North,11,3.5,3.5,44,0.00,CLR,,0.00,WeatherDisplay:10.37,2013-09-06 18:08:00,
2013-09-06 14:14:00,64.4,42.0,30.17,NNE,17,1.2,2.0,44,0.00,CLR,,0.00,WeatherDisplay:10.37,2013-09-06 18:14:00,
2013-09-06 14:19:00,64.6,42.8,30.17,East,95,2.3,2.3,45,0.00,CLR,,0.00,WeatherDisplay:10.37,2013-09-06 18:19:00,
2013-09-06 14:24:00,64.3,41.9,30.17,SSW,205,3.5,3.7,44,0.00,CLR,,0.00,WeatherDisplay:10.37,2013-09-06 18:24:00,
2013-09-06 14:29:00,64.5,41.5,30.17,ESE,121,3.5,3.5,43,0.00,CLR,,0.00,WeatherDisplay:10.37,2013-09-06 18:29:00,
2013-09-06 14:34:00,64.8,41.2,30.17,NW,325,0.0,0.0,42,0.00,CLR,,0.00,WeatherDisplay:10.37,2013-09-06 18:34:00,
2013-09-06 14:39:00,64.9,40.0,30.17,NNE,24,1.2,1.3,40,0.00,CLR,,0.00,WeatherDisplay:10.37,2013-09-06 18:39:00,
2013-09-06 14:44:00,65.0,40.1,30.16,NNW,347,0.0,0.0,40,0.00,CLR,,0.00,WeatherDisplay:10.37,2013-09-06 18:44:00,
2013-09-06 14:49:00,65.0,40.7,30.16,NNE,17,4.6,4.6,41,0.00,CLR,,0.00,WeatherDisplay:10.37,2013-09-06 18:49:00,
2013-09-06 14:54:00,64.9,41.2,30.16,WNW,286,2.3,2.3,42,0.00,CLR,,0.00,WeatherDisplay:10.37,2013-09-06 18:54:00,
2013-09-06 14:59:00,65.2,39.6,30.16,North,5,0.0,1.6,39,0.00,CLR,,0.00,WeatherDisplay:10.37,2013-09-06 18:59:00,
2013-09-06 15:04:00,65.4,39.1,30.15,SSW,196,1.2,1.2,38,0.00,CLR,,0.00,WeatherDisplay:10.37,2013-09-06 19:04:00,
2013-09-06 15:09:00,65.9,41.5,30.15,SW,217,1.2,1.2,41,0.00,CLR,,0.00,WeatherDisplay:10.37,2013-09-06 19:09:00,
2013-09-06 15:14:00,66.4,41.3,30.15,West,279,1.2,1.2,40,0.00,CLR,,0.00,WeatherDisplay:10.37,2013-09-06 19:14:00,
2013-09-06 15:19:00,66.7,42.9,30.15,NW,313,3.0,0.0,42,0.00,CLR,,0.00,WeatherDisplay:10.37,2013-09-06 19:19:00,
2013-09-06 15:24:00,66.8,41.0,30.15,SSE,167,2.3,2.3,39,0.00,CLR,,0.00,WeatherDisplay:10.37,2013-09-06 19:24:00,
2013-09-06 15:29:00,66.5,42.1,30.15,NE,46,2.3,2.3,41,0.00,CLR,,0.00,WeatherDisplay:10.37,2013-09-06 19:29:00,
2013-09-06 15:34:00,66.5,40.8,30.14,SE,136,3.5,3.5,39,0.00,CLR,,0.00,WeatherDisplay:10.37,2013-09-06 19:34:00,
2013-09-06 15:39:00,66.7,42.2,30.14,SSW,199,2.3,2.3,41,0.00,CLR,,0.00,WeatherDisplay:10.37,2013-09-06 19:39:00,
2013-09-06 15:44:00,66.8,44.2,30.14,ENE,74,3.5,3.5,44,0.00,CLR,,0.00,WeatherDisplay:10.37,2013-09-06 19:44:00,
2013-09-06 15:49:00,66.8,41.0,30.14,East,101,2.3,0.0,39,0.00,CLR,,0.00,WeatherDisplay:10.37,2013-09-06 19:49:00,
2013-09-06 15:54:00,66.7,41.6,30.14,NE,38,2.3,2.3,40,0.00,CLR,,0.00,WeatherDisplay:10.37,2013-09-06 19:54:00,
2013-09-06 15:59:00,66.8,41.7,30.13,SE,126,3.5,3.5,40,0.00,CLR,,0.00,WeatherDisplay:10.37,2013-09-06 19:59:00,
2013-09-06 16:04:00,66.6,43.4,30.13,NNE,14,3.5,0.0,43,0.00,CLR,,0.00,WeatherDisplay:10.37,2013-09-06 20:04:00,
2013-09-06 16:09:00,66.5,42.7,30.13,ENE,60,1.2,1.7,42,0.00,CLR,,0.00,WeatherDisplay:10.37,2013-09-06 20:09:00,
2013-09-06 16:14:00,66.5,43.9,30.13,SSE,153,1.2,1.2,44,0.00,CLR,,0.00,WeatherDisplay:10.37,2013-09-06 20:14:00,
2013-09-06 16:19:00,66.5,41.4,30.13,West,266,2.3,2.3,40,0.00,CLR,,0.00,WeatherDisplay:10.37,2013-09-06 20:19:00,
2013-09-06 16:24:00,66.5,42.7,30.13,East,94,2.3,2.3,42,0.00,CLR,,0.00,WeatherDisplay:10.37,2013-09-06 20:24:00,
2013-09-06 16:29:00,66.0,42.2,30.13,North,11,1.2,1.2,42,0.00,CLR,,0.00,WeatherDisplay:10.37,2013-09-06 20:29:00,
2013-09-06 16:34:00,66.2,43.0,30.13,NNE,29,2.3,2.3,43,0.00,CLR,,0.00,WeatherDisplay:10.37,2013-09-06 20:34:00,
2013-09-06 16:39:00,66.2,45.9,30.12,South,178,5.8,5.8,48,0.00,CLR,,0.00,WeatherDisplay:10.37,2013-09-06 20:39:00,
2013-09-06 16:44:00,66.5,45.1,30.12,ESE,119,1.2,1.2,46,0.00,CLR,,0.00,WeatherDisplay:10.37,2013-09-06 20:44:00,
2013-09-06 16:49:00,66.5,46.2,30.12,NNW,336,3.5,3.5,48,0.00,CLR,,0.00,WeatherDisplay:10.37,2013-09-06 20:49:00,
2013-09-06 16:54:00,66.5,43.9,30.12,North,355,1.2,1.2,44,0.00,CLR,,0.00,WeatherDisplay:10.37,2013-09-06 20:54:00,
2013-09-06 16:59:00,66.1,43.5,30.12,East,82,3.5,3.5,44,0.00,CLR,,0.00,WeatherDisplay:10.37,2013-09-06 20:59:00,
2013-09-06 17:04:00,65.9,43.4,30.12,South,169,1.2,1.2,44,0.00,CLR,,0.00,WeatherDisplay:10.37,2013-09-06 21:04:00,
2013-09-06 17:09:00,66.0,44.6,30.12,SSE,159,2.3,2.3,46,0.00,CLR,,0.00,WeatherDisplay:10.37,2013-09-06 21:09:00,
2013-09-06 17:14:00,66.0,44.0,30.12,South,187,2.3,2.3,45,0.00,CLR,,0.00,WeatherDisplay:10.37,2013-09-06 21:14:00,
2013-09-06 17:19:00,65.9,44.5,30.12,SSW,212,3.5,3.5,46,0.00,CLR,,0.00,WeatherDisplay:10.37,2013-09-06 21:19:00,
2013-09-06 17:24:00,65.7,44.9,30.12,NW,322,2.3,2.3,47,0.00,CLR,,0.00,WeatherDisplay:10.37,2013-09-06 21:24:00,
2013-09-06 17:29:00,65.5,45.8,30.12,South,176,4.0,4.0,49,0.00,CLR,,0.00,WeatherDisplay:10.37,2013-09-06 21:29:00,
2013-09-06 17:34:00,64.9,45.3,30.12,SSW,194,3.5,3.5,49,0.00,CLR,,0.00,WeatherDisplay:10.37,2013-09-06 21:34:00,
2013-09-06 17:39:00,64.4,45.9,30.12,SSW,200,2.3,2.3,51,0.00,CLR,,0.00,WeatherDisplay:10.37,2013-09-06 21:39:00,
2013-09-06 17:44:00,64.0,46.0,30.12,South,186,1.2,1.2,52,0.00,CLR,,0.00,WeatherDisplay:10.37,2013-09-06 21:44:00,
2013-09-06 17:49:00,63.6,46.1,30.12,SSE,161,0.0,0.0,53,0.00,CLR,,0.00,WeatherDisplay:10.37,2013-09-06 21:49:00,
2013-09-06 17:54:00,63.2,46.8,30.12,WNW,294,1.2,1.2,55,0.00,CLR,,0.00,WeatherDisplay:10.37,2013-09-06 21:54:00,
2013-09-06 17:59:00,62.8,46.9,30.12,WNW,294,0.0,0.0,56,0.00,CLR,,0.00,WeatherDisplay:10.37,2013-09-06 21:59:00,
2013-09-06 18:04:00,62.4,47.0,30.12,SSW,194,0.0,0.0,57,0.00,CLR,,0.00,WeatherDisplay:10.37,2013-09-06 22:04:00,
2013-09-06 18:09:00,62.0,48.4,30.12,SSW,194,0.0,0.0,61,0.00,CLR,,0.00,WeatherDisplay:10.37,2013-09-06 22:09:00,
2013-09-06 18:14:00,61.7,47.7,30.12,SSW,192,1.2,0.0,60,0.00,CLR,,0.00,WeatherDisplay:10.37,2013-09-06 22:14:00,
2013-09-06 18:19:00,61.3,46.8,30.12,SSE,150,1.2,1.2,59,0.00,CLR,,0.00,WeatherDisplay:10.37,2013-09-06 22:19:00,
2013-09-06 18:24:00,60.9,46.9,30.12,WNW,294,0.0,0.0,60,0.00,CLR,,0.00,WeatherDisplay:10.37,2013-09-06 22:24:00,
2013-09-06 18:29:00,60.6,47.9,30.12,WNW,294,0.0,0.0,63,0.00,CLR,,0.00,WeatherDisplay:10.37,2013-09-06 22:29:00,
2013-09-06 18:34:00,60.3,47.6,30.12,WNW,294,1.2,1.2,63,0.00,CLR,,0.00,WeatherDisplay:10.37,2013-09-06 22:34:00,
2013-09-06 18:39:00,60.0,49.0,30.12,WNW,294,0.0,0.0,67,0.00,CLR,,0.00,WeatherDisplay:10.37,2013-09-06 22:39:00,
2013-09-06 18:44:00,59.5,49.3,30.12,WNW,294,0.0,0.0,69,0.00,CLR,,0.00,WeatherDisplay:10.37,2013-09-06 22:44:00,
2013-09-06 18:49:00,58.9,48.7,30.11,WNW,294,0.0,0.0,69,0.00,CLR,,0.00,WeatherDisplay:10.37,2013-09-06 22:49:00,
2013-09-06 18:54:00,58.2,48.8,30.11,WNW,294,0.0,0.0,71,0.00,CLR,,0.00,WeatherDisplay:10.37,2013-09-06 22:54:00,
2013-09-06 18:59:00,57.5,48.9,30.11,WNW,294,0.0,0.0,73,0.00,CLR,,0.00,WeatherDisplay:10.37,2013-09-06 22:59:00,
2013-09-06 19:04:00,57.2,48.6,30.11,WNW,294,0.0,0.0,73,0.00,CLR,,0.00,WeatherDisplay:10.37,2013-09-06 23:04:00,
2013-09-06 19:09:00,56.5,49.0,30.11,WNW,294,0.0,0.0,76,0.00,CLR,,0.00,WeatherDisplay:10.37,2013-09-06 23:09:00,
2013-09-06 19:14:00,55.7,48.6,30.11,WNW,294,0.0,0.0,77,0.00,CLR,,0.00,WeatherDisplay:10.37,2013-09-06 23:14:00,
2013-09-06 19:19:00,55.0,48.6,30.11,WNW,294,0.0,0.0,79,0.00,CLR,,0.00,WeatherDisplay:10.37,2013-09-06 23:19:00,
2013-09-06 19:24:00,54.5,48.1,30.10,WNW,294,0.0,0.0,79,0.00,CLR,,0.00,WeatherDisplay:10.37,2013-09-06 23:24:00,
2013-09-06 19:29:00,54.2,48.2,30.11,WNW,294,0.0,0.0,80,0.00,CLR,,0.00,WeatherDisplay:10.37,2013-09-06 23:29:00,
2013-09-06 19:35:00,53.7,47.7,30.11,WNW,294,0.0,0.0,80,0.00,CLR,,0.00,WeatherDisplay:10.37,2013-09-06 23:35:00,
2013-09-06 19:40:00,53.3,47.6,30.11,WNW,294,0.0,0.0,81,0.00,CLR,,0.00,WeatherDisplay:10.37,2013-09-06 23:40:00,
2013-09-06 19:45:00,52.9,47.6,30.11,WNW,294,0.0,0.0,82,0.00,CLR,,0.00,WeatherDisplay:10.37,2013-09-06 23:45:00,
2013-09-06 19:50:00,52.6,47.6,30.11,WNW,294,0.0,0.0,83,0.00,CLR,,0.00,WeatherDisplay:10.37,2013-09-06 23:50:00,
2013-09-06 19:55:00,52.2,47.2,30.11,WNW,294,0.0,0.0,83,0.00,CLR,,0.00,WeatherDisplay:10.37,2013-09-06 23:55:00,
2013-09-06 20:00:00,51.7,47.0,30.11,WNW,294,0.0,0.0,84,0.00,CLR,,0.00,WeatherDisplay:10.37,2013-09-07 00:00:00,
2013-09-06 20:05:00,51.4,47.0,30.11,WNW,294,0.0,0.0,85,0.00,CLR,,0.00,WeatherDisplay:10.37,2013-09-07 00:05:00,
2013-09-06 20:10:00,51.0,47.0,30.11,WNW,294,0.0,0.0,86,0.00,CLR,,0.00,WeatherDisplay:10.37,2013-09-07 00:10:00,
2013-09-06 20:15:00,50.6,46.9,30.11,WNW,294,0.0,0.0,87,0.00,CLR,,0.00,WeatherDisplay:10.37,2013-09-07 00:15:00,
2013-09-06 20:20:00,50.3,46.6,30.11,WNW,294,0.0,0.0,87,0.00,CLR,,0.00,WeatherDisplay:10.37,2013-09-07 00:20:00,
2013-09-06 20:25:00,50.0,46.6,30.11,WNW,294,0.0,0.0,88,0.00,CLR,,0.00,WeatherDisplay:10.37,2013-09-07 00:25:00,
2013-09-06 20:30:00,49.7,46.3,30.11,WNW,294,0.0,0.0,88,0.00,CLR,,0.00,WeatherDisplay:10.37,2013-09-07 00:30:00,
2013-09-06 20:35:00,49.4,46.3,30.11,WNW,294,0.0,0.0,89,0.00,CLR,,0.00,WeatherDisplay:10.37,2013-09-07 00:35:00,
2013-09-06 20:40:00,49.1,46.3,30.11,WNW,294,0.0,0.0,90,0.00,CLR,,0.00,WeatherDisplay:10.37,2013-09-07 00:40:00,
2013-09-06 20:45:00,49.0,46.2,30.11,WNW,294,0.0,0.0,90,0.00,CLR,,0.00,WeatherDisplay:10.37,2013-09-07 00:45:00,
2013-09-06 20:50:00,48.8,46.0,30.11,WNW,294,0.0,0.0,90,0.00,CLR,,0.00,WeatherDisplay:10.37,2013-09-07 00:50:00,
2013-09-06 20:55:00,48.6,45.8,30.11,WNW,294,0.0,0.0,90,0.00,CLR,,0.00,WeatherDisplay:10.37,2013-09-07 00:55:00,
2013-09-06 21:00:00,48.5,46.0,30.11,WNW,294,0.0,0.0,91,0.00,CLR,,0.00,WeatherDisplay:10.37,2013-09-07 01:00:00,
2013-09-06 21:05:00,48.3,45.8,30.11,WNW,294,0.0,0.0,91,0.00,CLR,,0.00,WeatherDisplay:10.37,2013-09-07 01:05:00,
2013-09-06 21:10:00,48.1,45.6,30.11,WNW,294,0.0,0.0,91,0.00,CLR,,0.00,WeatherDisplay:10.37,2013-09-07 01:10:00,
2013-09-06 21:15:00,47.8,45.6,30.11,WNW,294,0.0,0.0,92,0.00,CLR,,0.00,WeatherDisplay:10.37,2013-09-07 01:15:00,
2013-09-06 21:20:00,47.7,45.5,30.11,WNW,294,0.0,0.0,92,0.00,CLR,,0.00,WeatherDisplay:10.37,2013-09-07 01:20:00,
2013-09-06 21:25:00,47.6,45.4,30.11,WNW,294,0.0,0.0,92,0.00,CLR,,0.00,WeatherDisplay:10.37,2013-09-07 01:25:00,
2013-09-06 21:30:00,47.4,45.2,30.11,WNW,294,0.0,0.0,92,0.00,CLR,,0.00,WeatherDisplay:10.37,2013-09-07 01:30:00,
2013-09-06 21:35:00,47.3,45.4,30.11,WNW,294,0.0,0.0,93,0.00,CLR,,0.00,WeatherDisplay:10.37,2013-09-07 01:35:00,
2013-09-06 21:40:00,47.2,45.3,30.11,WNW,294,0.0,0.0,93,0.00,CLR,,0.00,WeatherDisplay:10.37,2013-09-07 01:40:00,
2013-09-06 21:45:00,47.1,45.2,30.11,WNW,294,0.0,0.0,93,0.00,CLR,,0.00,WeatherDisplay:10.37,2013-09-07 01:45:00,
2013-09-06 21:50:00,47.0,45.1,30.10,WNW,294,0.0,0.0,93,0.00,CLR,,0.00,WeatherDisplay:10.37,2013-09-07 01:50:00,
2013-09-06 21:55:00,46.9,45.0,30.10,WNW,294,0.0,0.0,93,0.00,CLR,,0.00,WeatherDisplay:10.37,2013-09-07 01:55:00,
2013-09-06 22:00:00,46.7,44.8,30.10,WNW,294,0.0,0.0,93,0.00,CLR,,0.00,WeatherDisplay:10.37,2013-09-07 02:00:00,
2013-09-06 22:05:00,46.6,45.0,30.10,WNW,294,0.0,0.0,94,0.00,CLR,,0.00,WeatherDisplay:10.37,2013-09-07 02:05:00,
2013-09-06 22:10:00,46.5,44.9,30.10,WNW,294,0.0,0.0,94,0.00,CLR,,0.00,WeatherDisplay:10.37,2013-09-07 02:10:00,
2013-09-06 22:15:00,46.4,44.8,30.10,WNW,294,0.0,0.0,94,0.00,CLR,,0.00,WeatherDisplay:10.37,2013-09-07 02:15:00,
2013-09-06 22:20:00,46.3,44.7,30.10,WNW,294,0.0,0.0,94,0.00,CLR,,0.00,WeatherDisplay:10.37,2013-09-07 02:20:00,
2013-09-06 22:25:00,46.1,44.5,30.09,WNW,294,0.0,0.0,94,0.00,CLR,,0.00,WeatherDisplay:10.37,2013-09-07 02:25:00,
2013-09-06 22:30:00,46.0,44.4,30.10,WNW,294,0.0,0.0,94,0.00,CLR,,0.00,WeatherDisplay:10.37,2013-09-07 02:30:00,
2013-09-06 22:35:00,46.0,44.6,30.10,WNW,294,0.0,0.0,95,0.00,CLR,,0.00,WeatherDisplay:10.37,2013-09-07 02:35:00,
2013-09-06 22:40:00,45.9,44.5,30.10,WNW,294,0.0,0.0,95,0.00,CLR,,0.00,WeatherDisplay:10.37,2013-09-07 02:40:00,
2013-09-06 22:45:00,45.8,44.4,30.10,WNW,294,0.0,0.0,95,0.00,CLR,,0.00,WeatherDisplay:10.37,2013-09-07 02:45:00,
2013-09-06 22:50:00,45.7,44.4,30.10,WNW,294,0.0,0.0,95,0.00,CLR,,0.00,WeatherDisplay:10.37,2013-09-07 02:50:00,
2013-09-06 22:55:00,45.6,44.3,30.10,WNW,294,0.0,0.0,95,0.00,CLR,,0.00,WeatherDisplay:10.37,2013-09-07 02:55:00,
2013-09-06 23:00:00,45.5,44.2,30.10,WNW,294,0.0,0.0,95,0.00,CLR,,0.00,WeatherDisplay:10.37,2013-09-07 03:00:00,
2013-09-06 23:05:00,45.5,44.2,30.09,WNW,294,0.0,0.0,95,0.00,CLR,,0.00,WeatherDisplay:10.37,2013-09-07 03:05:00,
2013-09-06 23:10:00,45.4,44.1,30.10,WNW,294,0.0,0.0,95,0.00,CLR,,0.00,WeatherDisplay:10.37,2013-09-07 03:10:00,
2013-09-06 23:15:00,45.4,44.3,30.10,WNW,294,0.0,0.0,96,0.00,CLR,,0.00,WeatherDisplay:10.37,2013-09-07 03:15:00,
2013-09-06 23:20:00,45.3,44.2,30.10,WNW,294,0.0,0.0,96,0.00,CLR,,0.00,WeatherDisplay:10.37,2013-09-07 03:20:00,
2013-09-06 23:25:00,45.3,44.0,30.10,WNW,294,0.0,0.0,95,0.00,CLR,,0.00,WeatherDisplay:10.37,2013-09-07 03:25:00,
2013-09-06 23:30:00,45.1,44.0,30.10,WNW,294,0.0,0.0,96,0.00,CLR,,0.00,WeatherDisplay:10.37,2013-09-07 03:30:00,
2013-09-06 23:35:00,45.1,43.8,30.09,WNW,294,0.0,0.0,95,0.00,CLR,,0.00,WeatherDisplay:10.37,2013-09-07 03:35:00,
2013-09-06 23:40:00,45.0,43.9,30.09,WNW,294,0.0,0.0,96,0.00,CLR,,0.00,WeatherDisplay:10.37,2013-09-07 03:40:00,
2013-09-06 23:45:00,44.8,43.7,30.09,WNW,294,0.0,0.0,96,0.00,CLR,,0.00,WeatherDisplay:10.37,2013-09-07 03:45:00,
2013-09-06 23:50:00,44.8,43.7,30.09,WNW,294,0.0,0.0,96,0.00,CLR,,0.00,WeatherDisplay:10.37,2013-09-07 03:50:00,
2013-09-06 23:55:00,44.7,43.6,30.09,WNW,294,0.0,0.0,96,0.00,CLR,,0.00,WeatherDisplay:10.37,2013-09-07 03:55:00,